sensor_id;sensor_type;location;lat;lon;timestamp;pressure;altitude;pressure_sealevel;temperature;humidity
12666;BME280;58531;59.050;17.416;2023-03-14T00:01:55;96692.97;;;4.00;100.00
12666;BME280;58531;59.050;17.416;2023-03-14T00:04:22;96692.00;;;3.98;100.00
12666;BME280;58531;59.050;17.416;2023-03-14T00:06:49;96690.09;;;3.93;100.00
12666;BME280;58531;59.050;17.416;2023-03-14T00:09:17;96696.09;;;3.99;100.00
12666;BME280;58531;59.050;17.416;2023-03-14T00:11:44;96690.09;;;3.93;100.00
12666;BME280;58531;59.050;17.416;2023-03-14T00:14:11;96684.81;;;3.93;100.00
12666;BME280;58531;59.050;17.416;2023-03-14T00:16:38;96689.38;;;3.98;100.00
12666;BME280;58531;59.050;17.416;2023-03-14T00:19:05;96690.34;;;4.00;100.00
12666;BME280;58531;59.050;17.416;2023-03-14T00:21:32;96693.69;;;4.06;100.00
12666;BME280;58531;59.050;17.416;2023-03-14T00:23:59;96697.25;;;4.09;100.00
12666;BME280;58531;59.050;17.416;2023-03-14T00:26:27;96692.94;;;4.06;100.00
12666;BME280;58531;59.050;17.416;2023-03-14T00:28:55;96693.69;;;4.06;100.00
12666;BME280;58531;59.050;17.416;2023-03-14T00:31:22;96687.44;;;4.04;100.00
12666;BME280;58531;59.050;17.416;2023-03-14T00:33:51;96692.94;;;4.06;100.00
12666;BME280;58531;59.050;17.416;2023-03-14T00:36:19;96683.84;;;4.07;100.00
12666;BME280;58531;59.050;17.416;2023-03-14T00:38:48;96681.19;;;4.07;100.00
12666;BME280;58531;59.050;17.416;2023-03-14T00:41:17;96685.75;;;4.06;100.00
12666;BME280;58531;59.050;17.416;2023-03-14T00:43:46;96685.03;;;4.06;100.00
12666;BME280;58531;59.050;17.416;2023-03-14T00:46:12;96687.16;;;4.13;100.00
12666;BME280;58531;59.050;17.416;2023-03-14T00:48:40;96683.31;;;4.14;100.00
12666;BME280;58531;59.050;17.416;2023-03-14T00:51:08;96679.25;;;4.13;100.00
12666;BME280;58531;59.050;17.416;2023-03-14T00:53:37;96680.69;;;4.14;100.00
12666;BME280;58531;59.050;17.416;2023-03-14T00:56:07;96676.09;;;4.20;100.00
12666;BME280;58531;59.050;17.416;2023-03-14T00:58:34;96680.41;;;4.23;100.00
12666;BME280;58531;59.050;17.416;2023-03-14T01:01:07;96676.06;;;4.25;100.00
12666;BME280;58531;59.050;17.416;2023-03-14T01:03:33;96691.44;;;4.27;100.00
12666;BME280;58531;59.050;17.416;2023-03-14T01:06:08;96680.88;;;4.27;100.00
12666;BME280;58531;59.050;17.416;2023-03-14T01:08:35;96676.81;;;4.26;100.00
12666;BME280;58531;59.050;17.416;2023-03-14T01:11:05;96669.13;;;4.28;100.00
12666;BME280;58531;59.050;17.416;2023-03-14T01:13:32;96674.16;;;4.26;100.00
12666;BME280;58531;59.050;17.416;2023-03-14T01:16:01;96688.56;;;4.25;100.00
12666;BME280;58531;59.050;17.416;2023-03-14T01:18:31;96682.31;;;4.28;100.00
12666;BME280;58531;59.050;17.416;2023-03-14T01:20:58;96689.50;;;4.33;100.00
12666;BME280;58531;59.050;17.416;2023-03-14T01:23:25;96691.63;;;4.34;100.00
12666;BME280;58531;59.050;17.416;2023-03-14T01:25:52;96688.75;;;4.32;100.00
12666;BME280;58531;59.050;17.416;2023-03-14T01:28:19;96689.22;;;4.36;100.00
12666;BME280;58531;59.050;17.416;2023-03-14T01:30:45;96694.28;;;4.34;100.00
12666;BME280;58531;59.050;17.416;2023-03-14T01:33:12;96689.22;;;4.36;100.00
12666;BME280;58531;59.050;17.416;2023-03-14T01:35:41;96698.81;;;4.34;100.00
12666;BME280;58531;59.050;17.416;2023-03-14T01:38:08;96699.78;;;4.36;100.00
12666;BME280;58531;59.050;17.416;2023-03-14T01:40:41;96697.16;;;4.36;100.00
12666;BME280;58531;59.050;17.416;2023-03-14T01:43:14;96699.78;;;4.36;100.00
12666;BME280;58531;59.050;17.416;2023-03-14T01:48:53;96705.59;;;4.29;100.00
12666;BME280;58531;59.050;17.416;2023-03-14T01:51:27;96709.63;;;4.36;100.00
12666;BME280;58531;59.050;17.416;2023-03-14T01:54:01;96721.16;;;4.38;100.00
12666;BME280;58531;59.050;17.416;2023-03-14T01:56:31;96730.53;;;4.34;100.00
12666;BME280;58531;59.050;17.416;2023-03-14T01:58:59;96732.97;;;4.32;100.00
12666;BME280;58531;59.050;17.416;2023-03-14T02:01:28;96734.84;;;4.37;100.00
12666;BME280;58531;59.050;17.416;2023-03-14T02:03:58;96735.06;;;4.39;100.00
12666;BME280;58531;59.050;17.416;2023-03-14T02:06:35;96730.00;;;4.41;100.00
12666;BME280;58531;59.050;17.416;2023-03-14T02:09:04;96735.06;;;4.39;100.00
12666;BME280;58531;59.050;17.416;2023-03-14T02:11:31;96729.78;;;4.39;100.00
12666;BME280;58531;59.050;17.416;2023-03-14T02:13:59;96722.59;;;4.34;100.00
12666;BME280;58531;59.050;17.416;2023-03-14T02:16:26;96723.56;;;4.36;100.00
12666;BME280;58531;59.050;17.416;2023-03-14T02:18:53;96726.47;;;4.33;100.00
12666;BME280;58531;59.050;17.416;2023-03-14T02:21:23;96733.16;;;4.34;100.00
12666;BME280;58531;59.050;17.416;2023-03-14T02:23:59;96737.25;;;4.35;100.00
12666;BME280;58531;59.050;17.416;2023-03-14T02:26:35;96745.41;;;4.37;100.00
12666;BME280;58531;59.050;17.416;2023-03-14T02:29:06;96749.47;;;4.38;100.00
12666;BME280;58531;59.050;17.416;2023-03-14T02:31:33;96751.66;;;4.39;100.00
12666;BME280;58531;59.050;17.416;2023-03-14T02:34:01;96750.69;;;4.37;100.00
12666;BME280;58531;59.050;17.416;2023-03-14T02:36:29;96753.09;;;4.40;100.00
12666;BME280;58531;59.050;17.416;2023-03-14T02:39:03;96747.06;;;4.40;100.00
12666;BME280;58531;59.050;17.416;2023-03-14T02:41:33;96756.84;;;4.56;100.00
12666;BME280;58531;59.050;17.416;2023-03-14T02:44:00;96756.34;;;4.63;100.00
12666;BME280;58531;59.050;17.416;2023-03-14T02:46:29;96742.69;;;4.59;100.00
12666;BME280;58531;59.050;17.416;2023-03-14T02:48:58;96748.22;;;4.55;100.00
12666;BME280;58531;59.050;17.416;2023-03-14T02:51:27;96756.38;;;4.57;100.00
12666;BME280;58531;59.050;17.416;2023-03-14T02:53:55;96751.81;;;4.58;100.00
12666;BME280;58531;59.050;17.416;2023-03-14T02:56:22;96765.47;;;4.62;100.00
12666;BME280;58531;59.050;17.416;2023-03-14T02:58:49;96769.56;;;4.63;100.00
12666;BME280;58531;59.050;17.416;2023-03-14T03:01:16;96762.34;;;4.68;100.00
12666;BME280;58531;59.050;17.416;2023-03-14T03:03:44;96759.41;;;4.77;100.00
12666;BME280;58531;59.050;17.416;2023-03-14T03:06:11;96762.75;;;4.83;100.00
12666;BME280;58531;59.050;17.416;2023-03-14T03:08:38;96769.19;;;4.88;100.00
12666;BME280;58531;59.050;17.416;2023-03-14T03:11:05;96771.56;;;4.91;100.00
12666;BME280;58531;59.050;17.416;2023-03-14T03:13:32;96779.28;;;4.89;100.00
12666;BME280;58531;59.050;17.416;2023-03-14T03:15:59;96780.75;;;4.85;100.00
12666;BME280;58531;59.050;17.416;2023-03-14T03:18:26;96794.66;;;4.91;100.00
12666;BME280;58531;59.050;17.416;2023-03-14T03:20:54;96790.56;;;4.90;100.00
12666;BME280;58531;59.050;17.416;2023-03-14T03:23:21;96790.56;;;4.90;100.00
12666;BME280;58531;59.050;17.416;2023-03-14T03:25:48;96795.88;;;4.84;100.00
12666;BME280;58531;59.050;17.416;2023-03-14T03:28:16;96796.09;;;4.86;100.00
12666;BME280;58531;59.050;17.416;2023-03-14T03:30:43;96799.75;;;4.83;100.00
12666;BME280;58531;59.050;17.416;2023-03-14T03:33:11;96808.88;;;4.82;100.00
12666;BME280;58531;59.050;17.416;2023-03-14T03:35:43;96809.38;;;4.75;100.00
12666;BME280;58531;59.050;17.416;2023-03-14T03:38:12;96817.59;;;4.66;100.00
12666;BME280;58531;59.050;17.416;2023-03-14T03:40:39;96818.34;;;4.51;100.00
12666;BME280;58531;59.050;17.416;2023-03-14T03:43:06;96816.91;;;4.55;100.00
12666;BME280;58531;59.050;17.416;2023-03-14T03:45:33;96823.13;;;4.63;100.00
12666;BME280;58531;59.050;17.416;2023-03-14T03:47:59;96815.44;;;4.60;100.00
12666;BME280;58531;59.050;17.416;2023-03-14T03:50:26;96822.38;;;4.68;100.00
12666;BME280;58531;59.050;17.416;2023-03-14T03:52:53;96818.53;;;4.74;100.00
12666;BME280;58531;59.050;17.416;2023-03-14T03:55:21;96832.25;;;4.67;100.00
12666;BME280;58531;59.050;17.416;2023-03-14T03:57:48;96830.81;;;4.61;100.00
12666;BME280;58531;59.050;17.416;2023-03-14T04:00:15;96830.53;;;4.70;100.00
12666;BME280;58531;59.050;17.416;2023-03-14T04:02:42;96838.22;;;4.73;100.00
12666;BME280;58531;59.050;17.416;2023-03-14T04:05:09;96840.38;;;4.75;100.00
12666;BME280;58531;59.050;17.416;2023-03-14T04:07:36;96836.31;;;4.68;100.00
12666;BME280;58531;59.050;17.416;2023-03-14T04:10:04;96836.31;;;4.63;100.00
12666;BME280;58531;59.050;17.416;2023-03-14T04:12:33;96845.00;;;4.58;100.00
12666;BME280;58531;59.050;17.416;2023-03-14T04:15:00;96839.72;;;4.58;100.00
12666;BME280;58531;59.050;17.416;2023-03-14T04:17:26;96850.28;;;4.58;100.00
12666;BME280;58531;59.050;17.416;2023-03-14T04:19:53;96858.72;;;4.51;100.00
12666;BME280;58531;59.050;17.416;2023-03-14T04:22:20;96851.50;;;4.41;100.00
12666;BME280;58531;59.050;17.416;2023-03-14T04:24:48;96853.44;;;4.35;100.00
12666;BME280;58531;59.050;17.416;2023-03-14T04:27:15;96858.53;;;4.33;100.00
12666;BME280;58531;59.050;17.416;2023-03-14T04:29:43;96865.97;;;4.23;100.00
12666;BME280;58531;59.050;17.416;2023-03-14T04:32:10;96872.94;;;4.21;100.00
12666;BME280;58531;59.050;17.416;2023-03-14T04:34:37;96876.53;;;4.18;100.00
12666;BME280;58531;59.050;17.416;2023-03-14T04:37:04;96880.38;;;4.11;100.00
12666;BME280;58531;59.050;17.416;2023-03-14T04:39:31;96880.38;;;4.06;100.00
12666;BME280;58531;59.050;17.416;2023-03-14T04:41:58;96883.28;;;4.02;100.00
12666;BME280;58531;59.050;17.416;2023-03-14T04:44:25;96887.56;;;4.00;100.00
12666;BME280;58531;59.050;17.416;2023-03-14T04:46:53;96894.53;;;3.92;100.00
12666;BME280;58531;59.050;17.416;2023-03-14T04:49:20;96912.75;;;3.90;100.00
12666;BME280;58531;59.050;17.416;2023-03-14T04:51:48;96916.63;;;3.94;100.00
12666;BME280;58531;59.050;17.416;2023-03-14T04:54:16;96918.28;;;3.92;100.00
12666;BME280;58531;59.050;17.416;2023-03-14T04:56:43;96907.00;;;3.86;100.00
12666;BME280;58531;59.050;17.416;2023-03-14T04:59:10;96920.91;;;3.92;100.00
12666;BME280;58531;59.050;17.416;2023-03-14T05:01:36;96927.66;;;3.98;100.00
12666;BME280;58531;59.050;17.416;2023-03-14T05:04:05;96934.84;;;3.98;100.00
12666;BME280;58531;59.050;17.416;2023-03-14T05:06:32;96948.53;;;3.96;100.00
12666;BME280;58531;59.050;17.416;2023-03-14T05:09:00;96953.81;;;3.96;100.00
12666;BME280;58531;59.050;17.416;2023-03-14T05:11:27;96957.66;;;4.01;100.00
12666;BME280;58531;59.050;17.416;2023-03-14T05:13:55;96960.53;;;3.97;100.00
12666;BME280;58531;59.050;17.416;2023-03-14T05:16:22;96958.84;;;3.94;100.00
12666;BME280;58531;59.050;17.416;2023-03-14T05:18:49;96959.56;;;3.89;100.00
12666;BME280;58531;59.050;17.416;2023-03-14T05:21:18;96958.81;;;3.89;100.00
12666;BME280;58531;59.050;17.416;2023-03-14T05:23:45;96968.44;;;3.92;100.00
12666;BME280;58531;59.050;17.416;2023-03-14T05:26:13;96978.75;;;3.84;100.00
12666;BME280;58531;59.050;17.416;2023-03-14T05:28:42;96982.09;;;3.85;100.00
12666;BME280;58531;59.050;17.416;2023-03-14T05:31:09;96993.13;;;3.83;100.00
12666;BME280;58531;59.050;17.416;2023-03-14T05:33:37;96995.53;;;3.81;100.00
12666;BME280;58531;59.050;17.416;2023-03-14T05:36:04;97003.94;;;3.80;100.00
12666;BME280;58531;59.050;17.416;2023-03-14T05:38:33;97016.16;;;3.83;100.00
12666;BME280;58531;59.050;17.416;2023-03-14T05:41:00;97026.94;;;3.85;100.00
12666;BME280;58531;59.050;17.416;2023-03-14T05:43:28;97024.31;;;3.85;100.00
12666;BME280;58531;59.050;17.416;2023-03-14T05:45:55;97022.91;;;3.89;100.00
12666;BME280;58531;59.050;17.416;2023-03-14T05:48:22;97019.28;;;3.87;100.00
12666;BME280;58531;59.050;17.416;2023-03-14T05:50:54;97021.72;;;3.96;100.00
12666;BME280;58531;59.050;17.416;2023-03-14T05:53:22;97020.25;;;3.95;100.00
12666;BME280;58531;59.050;17.416;2023-03-14T05:55:52;97011.16;;;3.90;100.00
12666;BME280;58531;59.050;17.416;2023-03-14T05:58:20;97024.59;;;3.92;100.00
12666;BME280;58531;59.050;17.416;2023-03-14T06:00:49;97027.47;;;4.00;100.00
12666;BME280;58531;59.050;17.416;2023-03-14T06:03:16;97025.06;;;3.91;100.00
12666;BME280;58531;59.050;17.416;2023-03-14T06:05:43;97032.75;;;4.00;100.00
12666;BME280;58531;59.050;17.416;2023-03-14T06:08:10;97047.16;;;3.99;100.00
12666;BME280;58531;59.050;17.416;2023-03-14T06:10:37;97061.28;;;3.96;100.00
12666;BME280;58531;59.050;17.416;2023-03-14T06:13:05;97058.63;;;3.85;100.00
12666;BME280;58531;59.050;17.416;2023-03-14T06:15:32;97067.03;;;3.83;100.00
12666;BME280;58531;59.050;17.416;2023-03-14T06:18:01;97070.63;;;3.86;100.00
12666;BME280;58531;59.050;17.416;2023-03-14T06:20:28;97070.63;;;3.86;100.00
12666;BME280;58531;59.050;17.416;2023-03-14T06:22:56;97074.75;;;3.92;100.00
12666;BME280;58531;59.050;17.416;2023-03-14T06:25:24;97090.34;;;3.96;100.00
12666;BME280;58531;59.050;17.416;2023-03-14T06:27:51;97091.06;;;3.96;100.00
12666;BME280;58531;59.050;17.416;2023-03-14T06:30:19;97091.78;;;3.91;100.00
12666;BME280;58531;59.050;17.416;2023-03-14T06:32:46;97107.16;;;3.98;100.00
12666;BME280;58531;59.050;17.416;2023-03-14T06:35:13;97104.78;;;4.06;100.00
12666;BME280;58531;59.050;17.416;2023-03-14T06:37:40;97107.91;;;4.15;100.00
12666;BME280;58531;59.050;17.416;2023-03-14T06:40:09;97113.22;;;4.21;100.00
12666;BME280;58531;59.050;17.416;2023-03-14T06:42:36;97118.06;;;4.28;100.00
12666;BME280;58531;59.050;17.416;2023-03-14T06:45:04;97115.16;;;4.37;100.00
12666;BME280;58531;59.050;17.416;2023-03-14T06:47:32;97120.25;;;4.46;100.00
12666;BME280;58531;59.050;17.416;2023-03-14T06:50:00;97126.97;;;4.47;100.00
12666;BME280;58531;59.050;17.416;2023-03-14T06:52:27;97150.53;;;4.72;100.00
12666;BME280;58531;59.050;17.416;2023-03-14T06:54:53;97153.44;;;4.74;100.00
12666;BME280;58531;59.050;17.416;2023-03-14T06:57:20;97152.25;;;4.69;100.00
12666;BME280;58531;59.050;17.416;2023-03-14T06:59:47;97173.13;;;4.67;100.00
12666;BME280;58531;59.050;17.416;2023-03-14T07:02:14;97176.94;;;4.56;100.00
12666;BME280;58531;59.050;17.416;2023-03-14T07:04:43;97186.97;;;4.41;100.00
12666;BME280;58531;59.050;17.416;2023-03-14T07:07:10;97184.06;;;4.28;100.00
12666;BME280;58531;59.050;17.416;2023-03-14T07:09:37;97182.78;;;4.07;100.00
12666;BME280;58531;59.050;17.416;2023-03-14T07:12:05;97193.03;;;3.94;100.00
12666;BME280;58531;59.050;17.416;2023-03-14T07:14:32;97200.19;;;3.88;100.00
12666;BME280;58531;59.050;17.416;2023-03-14T07:16:59;97203.81;;;3.90;100.00
12666;BME280;58531;59.050;17.416;2023-03-14T07:19:26;97202.13;;;3.93;100.00
12666;BME280;58531;59.050;17.416;2023-03-14T07:21:54;97206.78;;;4.03;100.00
12666;BME280;58531;59.050;17.416;2023-03-14T07:24:21;97209.31;;;4.40;100.00
12666;BME280;58531;59.050;17.416;2023-03-14T07:26:48;97220.53;;;4.93;99.60
12666;BME280;58531;59.050;17.416;2023-03-14T07:29:15;97224.38;;;5.90;96.66
12666;BME280;58531;59.050;17.416;2023-03-14T07:31:42;97217.34;;;6.15;90.57
12666;BME280;58531;59.050;17.416;2023-03-14T07:34:08;97220.31;;;5.84;91.59
12666;BME280;58531;59.050;17.416;2023-03-14T07:36:36;97232.56;;;5.43;93.07
12666;BME280;58531;59.050;17.416;2023-03-14T07:39:04;97226.31;;;5.08;95.09
12666;BME280;58531;59.050;17.416;2023-03-14T07:41:31;97236.84;;;4.86;97.11
12666;BME280;58531;59.050;17.416;2023-03-14T07:43:59;97243.34;;;4.79;99.62
12666;BME280;58531;59.050;17.416;2023-03-14T07:46:26;97243.56;;;4.81;99.35
12666;BME280;58531;59.050;17.416;2023-03-14T07:48:53;97248.63;;;4.85;99.86
12666;BME280;58531;59.050;17.416;2023-03-14T07:51:20;97256.13;;;5.03;100.00
12666;BME280;58531;59.050;17.416;2023-03-14T07:53:47;97251.81;;;5.22;99.33
12666;BME280;58531;59.050;17.416;2023-03-14T07:56:15;97253.53;;;5.47;96.87
12666;BME280;58531;59.050;17.416;2023-03-14T07:58:42;97250.66;;;5.83;95.73
12666;BME280;58531;59.050;17.416;2023-03-14T08:01:08;97256.34;;;6.20;93.16
12666;BME280;58531;59.050;17.416;2023-03-14T08:03:35;97260.31;;;6.54;90.97
12666;BME280;58531;59.050;17.416;2023-03-14T08:06:02;97268.34;;;6.37;91.16
12666;BME280;58531;59.050;17.416;2023-03-14T08:08:29;97273.59;;;6.48;90.58
12666;BME280;58531;59.050;17.416;2023-03-14T08:11:02;97280.81;;;6.53;89.94
12666;BME280;58531;59.050;17.416;2023-03-14T08:13:30;97270.81;;;6.81;87.53
12666;BME280;58531;59.050;17.416;2023-03-14T08:15:57;97261.44;;;7.20;88.00
12666;BME280;58531;59.050;17.416;2023-03-14T08:18:24;97258.09;;;7.14;83.91
12666;BME280;58531;59.050;17.416;2023-03-14T08:20:51;97256.41;;;7.11;86.74
12666;BME280;58531;59.050;17.416;2023-03-14T08:23:18;97267.13;;;6.95;84.73
12666;BME280;58531;59.050;17.416;2023-03-14T08:25:45;97273.44;;;6.87;85.74
12666;BME280;58531;59.050;17.416;2023-03-14T08:28:12;97258.53;;;6.78;83.32
12666;BME280;58531;59.050;17.416;2023-03-14T08:30:40;97262.63;;;6.85;84.95
12666;BME280;58531;59.050;17.416;2023-03-14T08:33:07;97261.31;;;6.97;85.08
12666;BME280;58531;59.050;17.416;2023-03-14T08:35:34;97257.13;;;6.66;86.09
12666;BME280;58531;59.050;17.416;2023-03-14T08:38:01;97271.97;;;6.34;88.06
12666;BME280;58531;59.050;17.416;2023-03-14T08:40:27;97270.81;;;6.08;88.78
12666;BME280;58531;59.050;17.416;2023-03-14T08:42:54;97273.00;;;6.09;88.75
12666;BME280;58531;59.050;17.416;2023-03-14T08:45:21;97264.50;;;6.33;87.20
12666;BME280;58531;59.050;17.416;2023-03-14T08:47:51;97270.50;;;6.44;90.65
12666;BME280;58531;59.050;17.416;2023-03-14T08:50:18;97272.06;;;6.75;87.67
12666;BME280;58531;59.050;17.416;2023-03-14T08:52:45;97273.41;;;6.92;86.08
12666;BME280;58531;59.050;17.416;2023-03-14T08:55:12;97268.53;;;7.01;85.94
12666;BME280;58531;59.050;17.416;2023-03-14T08:57:39;97282.84;;;7.28;85.22
12666;BME280;58531;59.050;17.416;2023-03-14T09:00:07;97283.81;;;7.30;81.70
12666;BME280;58531;59.050;17.416;2023-03-14T09:02:36;97285.09;;;7.53;83.87
12666;BME280;58531;59.050;17.416;2023-03-14T09:05:05;97296.00;;;7.79;81.68
12666;BME280;58531;59.050;17.416;2023-03-14T09:07:32;97296.00;;;7.79;80.39
12666;BME280;58531;59.050;17.416;2023-03-14T09:09:59;97308.16;;;7.69;81.33
12666;BME280;58531;59.050;17.416;2023-03-14T09:12:26;97305.09;;;7.89;78.74
12666;BME280;58531;59.050;17.416;2023-03-14T09:14:53;97295.91;;;7.90;80.26
12666;BME280;58531;59.050;17.416;2023-03-14T09:17:20;97297.44;;;8.10;78.64
12666;BME280;58531;59.050;17.416;2023-03-14T09:19:46;97308.88;;;7.99;79.36
12666;BME280;58531;59.050;17.416;2023-03-14T09:22:15;97304.44;;;7.83;79.44
12666;BME280;58531;59.050;17.416;2023-03-14T09:24:42;97313.00;;;7.65;81.59
12666;BME280;58531;59.050;17.416;2023-03-14T09:27:09;97310.31;;;7.71;81.16
12666;BME280;58531;59.050;17.416;2023-03-14T09:29:35;97310.13;;;7.93;81.40
12666;BME280;58531;59.050;17.416;2023-03-14T09:32:02;97307.38;;;8.33;79.14
12666;BME280;58531;59.050;17.416;2023-03-14T09:34:29;97304.53;;;8.25;77.83
12666;BME280;58531;59.050;17.416;2023-03-14T09:36:56;97310.03;;;8.33;77.87
12666;BME280;58531;59.050;17.416;2023-03-14T09:39:25;97309.22;;;8.14;76.41
12666;BME280;58531;59.050;17.416;2023-03-14T09:41:54;97316.16;;;8.22;77.20
12666;BME280;58531;59.050;17.416;2023-03-14T09:44:26;97317.16;;;8.19;78.92
12666;BME280;58531;59.050;17.416;2023-03-14T09:46:55;97313.69;;;8.54;76.58
12666;BME280;58531;59.050;17.416;2023-03-14T09:49:27;97318.59;;;8.68;76.23
12666;BME280;58531;59.050;17.416;2023-03-14T09:51:56;97319.72;;;8.54;77.04
12666;BME280;58531;59.050;17.416;2023-03-14T09:54:34;97324.09;;;8.76;76.62
12666;BME280;58531;59.050;17.416;2023-03-14T09:57:04;97334.59;;;8.87;75.95
12666;BME280;58531;59.050;17.416;2023-03-14T09:59:31;97332.16;;;8.89;73.04
12666;BME280;58531;59.050;17.416;2023-03-14T10:02:02;97346.28;;;9.02;73.30
12666;BME280;58531;59.050;17.416;2023-03-14T10:04:38;97334.00;;;8.94;73.56
12666;BME280;58531;59.050;17.416;2023-03-14T10:07:08;97339.06;;;9.16;73.05
12666;BME280;58531;59.050;17.416;2023-03-14T10:09:42;97341.09;;;9.10;74.05
12666;BME280;58531;59.050;17.416;2023-03-14T10:12:09;97346.81;;;8.53;76.29
12666;BME280;58531;59.050;17.416;2023-03-14T10:14:38;97358.66;;;8.76;75.89
12666;BME280;58531;59.050;17.416;2023-03-14T10:17:12;97359.78;;;8.86;76.63
12666;BME280;58531;59.050;17.416;2023-03-14T10:19:51;97362.81;;;8.71;75.58
12666;BME280;58531;59.050;17.416;2023-03-14T10:22:19;97360.56;;;8.33;76.75
12666;BME280;58531;59.050;17.416;2023-03-14T10:24:53;97356.22;;;8.54;76.52
12666;BME280;58531;59.050;17.416;2023-03-14T10:27:23;97359.78;;;8.38;78.55
12666;BME280;58531;59.050;17.416;2023-03-14T10:29:55;97359.50;;;8.41;77.21
12666;BME280;58531;59.050;17.416;2023-03-14T10:32:28;97370.44;;;8.38;77.68
12666;BME280;58531;59.050;17.416;2023-03-14T10:37:50;97366.03;;;8.11;80.42
12666;BME280;58531;59.050;17.416;2023-03-14T10:40:20;97379.78;;;7.80;79.75
12666;BME280;58531;59.050;17.416;2023-03-14T10:42:50;97384.81;;;7.49;81.83
12666;BME280;58531;59.050;17.416;2023-03-14T10:45:28;97382.69;;;7.77;81.79
12666;BME280;58531;59.050;17.416;2023-03-14T10:47:59;97392.28;;;7.91;82.14
12666;BME280;58531;59.050;17.416;2023-03-14T10:50:32;97385.34;;;7.82;81.97
12666;BME280;58531;59.050;17.416;2023-03-14T10:53:02;97389.88;;;8.22;80.96
12666;BME280;58531;59.050;17.416;2023-03-14T10:55:41;97395.34;;;8.00;81.47
12666;BME280;58531;59.050;17.416;2023-03-14T10:58:40;97398.16;;;7.78;83.36
12666;BME280;58531;59.050;17.416;2023-03-14T11:01:26;97400.00;;;7.48;84.44
12666;BME280;58531;59.050;17.416;2023-03-14T11:04:02;97402.09;;;7.20;86.87
12666;BME280;58531;59.050;17.416;2023-03-14T11:06:39;97409.59;;;7.11;87.08
12666;BME280;58531;59.050;17.416;2023-03-14T11:09:15;97413.31;;;6.81;88.50
12666;BME280;58531;59.050;17.416;2023-03-14T11:11:47;97409.66;;;6.89;87.23
12666;BME280;58531;59.050;17.416;2023-03-14T11:14:23;97412.59;;;6.69;89.18
12666;BME280;58531;59.050;17.416;2023-03-14T11:16:59;97418.63;;;6.70;91.26
12666;BME280;58531;59.050;17.416;2023-03-14T11:19:38;97416.00;;;6.53;90.71
12666;BME280;58531;59.050;17.416;2023-03-14T11:22:15;97423.19;;;6.86;90.09
12666;BME280;58531;59.050;17.416;2023-03-14T11:24:53;97422.94;;;6.84;91.97
12666;BME280;58531;59.050;17.416;2023-03-14T11:27:28;97424.91;;;6.56;91.09
12666;BME280;58531;59.050;17.416;2023-03-14T11:30:02;97438.19;;;6.28;96.32
12666;BME280;58531;59.050;17.416;2023-03-14T11:32:42;97437.94;;;6.21;98.30
12666;BME280;58531;59.050;17.416;2023-03-14T11:35:17;97439.88;;;6.26;96.54
12666;BME280;58531;59.050;17.416;2023-03-14T11:37:48;97441.06;;;6.30;96.36
12666;BME280;58531;59.050;17.416;2023-03-14T11:40:18;97446.38;;;6.36;97.90
12666;BME280;58531;59.050;17.416;2023-03-14T11:42:54;97449.03;;;6.25;97.12
12666;BME280;58531;59.050;17.416;2023-03-14T11:45:26;97453.13;;;6.31;98.25
12666;BME280;58531;59.050;17.416;2023-03-14T11:50:57;97456.00;;;6.33;97.59
12666;BME280;58531;59.050;17.416;2023-03-14T11:53:39;97451.66;;;6.14;97.71
12666;BME280;58531;59.050;17.416;2023-03-14T11:56:11;97452.63;;;6.00;99.03
12666;BME280;58531;59.050;17.416;2023-03-14T11:58:49;97446.13;;;6.23;97.70
12666;BME280;58531;59.050;17.416;2023-03-14T12:01:20;97455.31;;;6.33;97.00
12666;BME280;58531;59.050;17.416;2023-03-14T12:03:55;97446.84;;;6.18;99.00
12666;BME280;58531;59.050;17.416;2023-03-14T12:06:28;97457.19;;;6.05;98.50
12666;BME280;58531;59.050;17.416;2023-03-14T12:08:59;97446.13;;;6.12;98.90
12666;BME280;58531;59.050;17.416;2023-03-14T12:11:38;97442.72;;;5.95;98.79
12666;BME280;58531;59.050;17.416;2023-03-14T12:14:20;97446.84;;;6.01;100.00
12666;BME280;58531;59.050;17.416;2023-03-14T12:16:49;97444.66;;;5.94;100.00
12666;BME280;58531;59.050;17.416;2023-03-14T12:19:28;97446.84;;;6.18;99.77
12666;BME280;58531;59.050;17.416;2023-03-14T12:22:00;97456.00;;;6.22;99.60
12666;BME280;58531;59.050;17.416;2023-03-14T12:24:30;97450.69;;;6.00;99.63
12666;BME280;58531;59.050;17.416;2023-03-14T12:27:00;97445.88;;;6.04;99.50
12666;BME280;58531;59.050;17.416;2023-03-14T12:29:29;97449.41;;;5.74;100.00
12666;BME280;58531;59.050;17.416;2023-03-14T12:32:08;97440.53;;;5.77;100.00
12666;BME280;58531;59.050;17.416;2023-03-14T12:34:39;97446.09;;;5.79;100.00
12666;BME280;58531;59.050;17.416;2023-03-14T12:37:18;97447.47;;;5.69;100.00
12666;BME280;58531;59.050;17.416;2023-03-14T12:39:56;97452.03;;;5.58;100.00
12666;BME280;58531;59.050;17.416;2023-03-14T12:42:42;97454.59;;;5.41;100.00
12666;BME280;58531;59.050;17.416;2023-03-14T12:45:25;97449.69;;;5.12;100.00
12666;BME280;58531;59.050;17.416;2023-03-14T12:47:55;97462.41;;;5.08;100.00
12666;BME280;58531;59.050;17.416;2023-03-14T12:50:31;97460.38;;;4.92;100.00
12666;BME280;58531;59.050;17.416;2023-03-14T12:53:35;97468.31;;;4.92;100.00
12666;BME280;58531;59.050;17.416;2023-03-14T12:56:19;97468.53;;;4.89;100.00
12666;BME280;58531;59.050;17.416;2023-03-14T12:58:54;97480.72;;;4.75;100.00
12666;BME280;58531;59.050;17.416;2023-03-14T13:01:28;97478.75;;;4.70;100.00
12666;BME280;58531;59.050;17.416;2023-03-14T13:03:56;97478.44;;;4.63;100.00
12666;BME280;58531;59.050;17.416;2023-03-14T13:06:49;97486.56;;;4.54;100.00
12666;BME280;58531;59.050;17.416;2023-03-14T13:09:36;97486.53;;;4.49;100.00
12666;BME280;58531;59.050;17.416;2023-03-14T13:12:17;97493.22;;;4.44;100.00
12666;BME280;58531;59.050;17.416;2023-03-14T13:14:46;97493.41;;;4.41;100.00